sensor_id;sensor_type;location;lat;lon;timestamp;pressure;altitude;pressure_sealevel;temperature;humidity
53011;BME280;42803;55.762;38.084;2024-01-27T00:00:48;99451.63;;;-7.36;100.00
53011;BME280;42803;55.762;38.084;2024-01-27T00:03:17;99453.94;;;-7.38;100.00
53011;BME280;42803;55.762;38.084;2024-01-27T00:05:46;99451.41;;;-7.38;100.00
53011;BME280;42803;55.762;38.084;2024-01-27T00:08:16;99450.69;;;-7.37;100.00
53011;BME280;42803;55.762;38.084;2024-01-27T00:10:46;99450.47;;;-7.38;100.00
53011;BME280;42803;55.762;38.084;2024-01-27T00:13:16;99455.34;;;-7.40;100.00
53011;BME280;42803;55.762;38.084;2024-01-27T00:15:45;99462.72;;;-7.41;100.00
53011;BME280;42803;55.762;38.084;2024-01-27T00:18:15;99464.13;;;-7.43;100.00
53011;BME280;42803;55.762;38.084;2024-01-27T00:20:44;99460.88;;;-7.42;100.00
53011;BME280;42803;55.762;38.084;2024-01-27T00:23:14;99461.78;;;-7.42;100.00
53011;BME280;42803;55.762;38.084;2024-01-27T00:25:43;99466.66;;;-7.43;100.00
53011;BME280;42803;55.762;38.084;2024-01-27T00:28:14;99462.25;;;-7.44;100.00
53011;BME280;42803;55.762;38.084;2024-01-27T00:30:43;99458.59;;;-7.46;100.00
53011;BME280;42803;55.762;38.084;2024-01-27T00:33:12;99452.63;;;-7.47;100.00
53011;BME280;42803;55.762;38.084;2024-01-27T00:35:42;99453.09;;;-7.49;100.00
53011;BME280;42803;55.762;38.084;2024-01-27T00:38:11;99453.34;;;-7.53;100.00
53011;BME280;42803;55.762;38.084;2024-01-27T00:40:40;99453.34;;;-7.53;100.00
53011;BME280;42803;55.762;38.084;2024-01-27T00:43:10;99450.09;;;-7.52;100.00
53011;BME280;42803;55.762;38.084;2024-01-27T00:45:40;99457.25;;;-7.55;100.00
53011;BME280;42803;55.762;38.084;2024-01-27T00:48:09;99460.28;;;-7.58;100.00
53011;BME280;42803;55.762;38.084;2024-01-27T00:50:39;99456.59;;;-7.60;100.00
53011;BME280;42803;55.762;38.084;2024-01-27T00:53:08;99462.84;;;-7.64;100.00
53011;BME280;42803;55.762;38.084;2024-01-27T00:55:37;99470.44;;;-7.64;100.00
53011;BME280;42803;55.762;38.084;2024-01-27T00:58:07;99461.72;;;-7.66;100.00
53011;BME280;42803;55.762;38.084;2024-01-27T01:00:36;99468.41;;;-7.66;100.00
53011;BME280;42803;55.762;38.084;2024-01-27T01:03:07;99463.31;;;-7.66;100.00
53011;BME280;42803;55.762;38.084;2024-01-27T01:05:36;99468.81;;;-7.63;100.00
53011;BME280;42803;55.762;38.084;2024-01-27T01:08:05;99460.09;;;-7.65;100.00
53011;BME280;42803;55.762;38.084;2024-01-27T01:10:35;99463.75;;;-7.63;100.00
53011;BME280;42803;55.762;38.084;2024-01-27T01:13:04;99466.78;;;-7.66;100.00
53011;BME280;42803;55.762;38.084;2024-01-27T01:15:35;99462.41;;;-7.67;100.00
53011;BME280;42803;55.762;38.084;2024-01-27T01:18:04;99464.25;;;-7.66;100.00
53011;BME280;42803;55.762;38.084;2024-01-27T01:20:35;99459.16;;;-7.66;100.00
53011;BME280;42803;55.762;38.084;2024-01-27T01:23:04;99467.47;;;-7.67;100.00
53011;BME280;42803;55.762;38.084;2024-01-27T01:25:33;99467.25;;;-7.68;100.00
53011;BME280;42803;55.762;38.084;2024-01-27T01:28:03;99469.31;;;-7.66;100.00
53011;BME280;42803;55.762;38.084;2024-01-27T01:30:33;99465.16;;;-7.65;100.00
53011;BME280;42803;55.762;38.084;2024-01-27T01:33:04;99459.16;;;-7.66;100.00
53011;BME280;42803;55.762;38.084;2024-01-27T01:35:34;99474.38;;;-7.66;100.00
53011;BME280;42803;55.762;38.084;2024-01-27T01:38:05;99471.13;;;-7.65;100.00
53011;BME280;42803;55.762;38.084;2024-01-27T01:40:34;99469.75;;;-7.63;100.00
53011;BME280;42803;55.762;38.084;2024-01-27T01:43:09;99474.81;;;-7.63;100.00
53011;BME280;42803;55.762;38.084;2024-01-27T01:45:38;99465.38;;;-7.64;100.00
53011;BME280;42803;55.762;38.084;2024-01-27T01:48:08;99470.88;;;-7.61;100.00
53011;BME280;42803;55.762;38.084;2024-01-27T01:50:39;99466.06;;;-7.59;100.00
53011;BME280;42803;55.762;38.084;2024-01-27T01:53:09;99466.97;;;-7.58;100.00
53011;BME280;42803;55.762;38.084;2024-01-27T01:55:38;99463.72;;;-7.57;100.00
53011;BME280;42803;55.762;38.084;2024-01-27T01:58:08;99471.53;;;-7.56;100.00
53011;BME280;42803;55.762;38.084;2024-01-27T02:00:38;99466.00;;;-7.53;100.00
53011;BME280;42803;55.762;38.084;2024-01-27T02:03:10;99472.69;;;-7.54;100.00
53011;BME280;42803;55.762;38.084;2024-01-27T02:05:42;99474.31;;;-7.54;100.00
53011;BME280;42803;55.762;38.084;2024-01-27T02:08:11;99475.22;;;-7.54;100.00
53011;BME280;42803;55.762;38.084;2024-01-27T02:10:40;99476.84;;;-7.54;100.00
53011;BME280;42803;55.762;38.084;2024-01-27T02:13:16;99475.22;;;-7.54;100.00
53011;BME280;42803;55.762;38.084;2024-01-27T02:15:49;99477.06;;;-7.53;100.00
53011;BME280;42803;55.762;38.084;2024-01-27T02:18:39;99483.75;;;-7.53;100.00
53011;BME280;42803;55.762;38.084;2024-01-27T02:21:10;99489.72;;;-7.53;100.00
53011;BME280;42803;55.762;38.084;2024-01-27T02:23:42;99491.34;;;-7.53;100.00
53011;BME280;42803;55.762;38.084;2024-01-27T02:26:13;99486.75;;;-7.56;100.00
53011;BME280;42803;55.762;38.084;2024-01-27T02:28:42;99490.91;;;-7.56;100.00
53011;BME280;42803;55.762;38.084;2024-01-27T02:31:11;99490.91;;;-7.56;100.00
53011;BME280;42803;55.762;38.084;2024-01-27T02:33:41;99490.00;;;-7.57;100.00
53011;BME280;42803;55.762;38.084;2024-01-27T02:36:10;99495.97;;;-7.56;100.00
53011;BME280;42803;55.762;38.084;2024-01-27T02:38:40;99502.66;;;-7.57;100.00
53011;BME280;42803;55.762;38.084;2024-01-27T02:41:09;99507.78;;;-7.63;100.00
53011;BME280;42803;55.762;38.084;2024-01-27T02:43:41;99498.75;;;-7.61;100.00
53011;BME280;42803;55.762;38.084;2024-01-27T02:46:11;99504.94;;;-7.47;100.00
53011;BME280;42803;55.762;38.084;2024-01-27T02:48:43;99506.09;;;-7.51;100.00
53011;BME280;42803;55.762;38.084;2024-01-27T02:51:12;99505.19;;;-7.57;100.00
53011;BME280;42803;55.762;38.084;2024-01-27T02:53:41;99508.91;;;-7.61;100.00
53011;BME280;42803;55.762;38.084;2024-01-27T02:56:11;99515.38;;;-7.63;100.00
53011;BME280;42803;55.762;38.084;2024-01-27T02:58:42;99506.63;;;-7.65;100.00
53011;BME280;42803;55.762;38.084;2024-01-27T03:01:11;99509.59;;;-7.67;100.00
53011;BME280;42803;55.762;38.084;2024-01-27T03:03:41;99513.09;;;-7.72;100.00
53011;BME280;42803;55.762;38.084;2024-01-27T03:06:10;99508.97;;;-7.77;100.00
53011;BME280;42803;55.762;38.084;2024-01-27T03:08:39;99522.31;;;-7.73;100.00
53011;BME280;42803;55.762;38.084;2024-01-27T03:11:09;99515.88;;;-7.76;100.00
53011;BME280;42803;55.762;38.084;2024-01-27T03:13:38;99514.06;;;-7.77;100.00
53011;BME280;42803;55.762;38.084;2024-01-27T03:16:14;99520.50;;;-7.79;100.00
53011;BME280;42803;55.762;38.084;2024-01-27T03:18:45;99519.78;;;-7.78;100.00
53011;BME280;42803;55.762;38.084;2024-01-27T03:21:14;99519.31;;;-7.76;100.00
53011;BME280;42803;55.762;38.084;2024-01-27T03:23:43;99518.19;;;-7.78;100.00
53011;BME280;42803;55.762;38.084;2024-01-27T03:26:13;99525.81;;;-7.78;100.00
53011;BME280;42803;55.762;38.084;2024-01-27T03:28:42;99528.78;;;-7.80;100.00
53011;BME280;42803;55.762;38.084;2024-01-27T03:31:11;99530.63;;;-7.79;100.00
53011;BME280;42803;55.762;38.084;2024-01-27T03:33:42;99527.88;;;-7.81;100.00
53011;BME280;42803;55.762;38.084;2024-01-27T03:36:12;99533.84;;;-7.86;100.00
53011;BME280;42803;55.762;38.084;2024-01-27T03:38:42;99536.41;;;-7.86;100.00
53011;BME280;42803;55.762;38.084;2024-01-27T03:41:11;99545.59;;;-7.87;100.00
53011;BME280;42803;55.762;38.084;2024-01-27T03:43:41;99532.03;;;-7.87;100.00
53011;BME280;42803;55.762;38.084;2024-01-27T03:46:10;99541.69;;;-7.90;100.00
53011;BME280;42803;55.762;38.084;2024-01-27T03:48:39;99539.88;;;-7.91;100.00
53011;BME280;42803;55.762;38.084;2024-01-27T03:51:10;99540.34;;;-7.88;100.00
53011;BME280;42803;55.762;38.084;2024-01-27T03:53:40;99550.47;;;-7.88;100.00
53011;BME280;42803;55.762;38.084;2024-01-27T03:56:11;99544.69;;;-7.87;100.00
53011;BME280;42803;55.762;38.084;2024-01-27T03:58:40;99548.63;;;-7.89;100.00
53011;BME280;42803;55.762;38.084;2024-01-27T04:01:10;99557.84;;;-7.90;100.00
53011;BME280;42803;55.762;38.084;2024-01-27T04:03:39;99560.13;;;-7.91;100.00
53011;BME280;42803;55.762;38.084;2024-01-27T04:06:10;99560.13;;;-7.91;100.00
53011;BME280;42803;55.762;38.084;2024-01-27T04:08:40;99562.91;;;-7.90;100.00
53011;BME280;42803;55.762;38.084;2024-01-27T04:11:19;99566.38;;;-7.89;100.00
53011;BME280;42803;55.762;38.084;2024-01-27T04:13:50;99570.28;;;-7.91;100.00
53011;BME280;42803;55.762;38.084;2024-01-27T04:16:19;99576.75;;;-7.93;100.00
53011;BME280;42803;55.762;38.084;2024-01-27T04:18:49;99575.34;;;-7.91;100.00
53011;BME280;42803;55.762;38.084;2024-01-27T04:21:20;99578.56;;;-7.92;100.00
53011;BME280;42803;55.762;38.084;2024-01-27T04:23:49;99577.66;;;-7.93;100.00
53011;BME280;42803;55.762;38.084;2024-01-27T04:26:18;99582.72;;;-7.93;100.00
53011;BME280;42803;55.762;38.084;2024-01-27T04:28:47;99587.31;;;-7.96;100.00
53011;BME280;42803;55.762;38.084;2024-01-27T04:31:17;99583.88;;;-7.96;100.00
53011;BME280;42803;55.762;38.084;2024-01-27T04:33:46;99585.50;;;-7.97;100.00
53011;BME280;42803;55.762;38.084;2024-01-27T04:36:26;99589.66;;;-7.97;100.00
53011;BME280;42803;55.762;38.084;2024-01-27T04:38:56;99594.72;;;-7.97;100.00
53011;BME280;42803;55.762;38.084;2024-01-27T04:41:25;99597.25;;;-7.97;100.00
53011;BME280;42803;55.762;38.084;2024-01-27T04:43:54;99602.31;;;-7.97;100.00
53011;BME280;42803;55.762;38.084;2024-01-27T04:46:24;99606.22;;;-7.99;100.00
53011;BME280;42803;55.762;38.084;2024-01-27T04:48:55;99609.44;;;-8.00;100.00
53011;BME280;42803;55.762;38.084;2024-01-27T04:51:25;99599.97;;;-8.01;100.00
53011;BME280;42803;55.762;38.084;2024-01-27T04:53:55;99608.97;;;-8.03;100.00
53011;BME280;42803;55.762;38.084;2024-01-27T04:56:24;99602.09;;;-8.04;100.00
53011;BME280;42803;55.762;38.084;2024-01-27T04:58:53;99610.34;;;-8.05;100.00
53011;BME280;42803;55.762;38.084;2024-01-27T05:01:23;99608.78;;;-8.05;100.00
53011;BME280;42803;55.762;38.084;2024-01-27T05:03:53;99607.16;;;-8.04;100.00
53011;BME280;42803;55.762;38.084;2024-01-27T05:06:22;99606.44;;;-8.03;100.00
53011;BME280;42803;55.762;38.084;2024-01-27T05:08:53;99615.41;;;-8.05;100.00
53011;BME280;42803;55.762;38.084;2024-01-27T05:11:25;99622.34;;;-8.04;100.00
53011;BME280;42803;55.762;38.084;2024-01-27T05:13:55;99624.38;;;-8.02;100.00
53011;BME280;42803;55.762;38.084;2024-01-27T05:16:25;99625.31;;;-8.01;100.00
53011;BME280;42803;55.762;38.084;2024-01-27T05:18:54;99623.47;;;-8.02;100.00
53011;BME280;42803;55.762;38.084;2024-01-27T05:21:24;99627.41;;;-8.04;100.00
53011;BME280;42803;55.762;38.084;2024-01-27T05:23:54;99632.94;;;-8.07;100.00
53011;BME280;42803;55.762;38.084;2024-01-27T05:26:23;99632.00;;;-8.07;100.00
53011;BME280;42803;55.762;38.084;2024-01-27T05:28:53;99628.56;;;-8.08;100.00
53011;BME280;42803;55.762;38.084;2024-01-27T05:31:22;99628.78;;;-8.06;100.00
53011;BME280;42803;55.762;38.084;2024-01-27T05:33:52;99637.28;;;-8.06;100.00
53011;BME280;42803;55.762;38.084;2024-01-27T05:36:21;99639.38;;;-8.03;100.00
53011;BME280;42803;55.762;38.084;2024-01-27T05:38:51;99635.00;;;-8.04;100.00
53011;BME280;42803;55.762;38.084;2024-01-27T05:41:25;99651.78;;;-7.99;100.00
53011;BME280;42803;55.762;38.084;2024-01-27T05:43:57;99648.09;;;-8.01;100.00
53011;BME280;42803;55.762;38.084;2024-01-27T05:46:27;99650.63;;;-8.01;100.00
53011;BME280;42803;55.762;38.084;2024-01-27T05:48:56;99654.13;;;-8.01;100.00
53011;BME280;42803;55.762;38.084;2024-01-27T05:51:29;99655.50;;;-7.97;100.00
53011;BME280;42803;55.762;38.084;2024-01-27T05:53:59;99658.72;;;-7.93;100.00
53011;BME280;42803;55.762;38.084;2024-01-27T05:56:30;99661.91;;;-7.88;100.00
53011;BME280;42803;55.762;38.084;2024-01-27T05:58:59;99657.97;;;-7.86;100.00
53011;BME280;42803;55.762;38.084;2024-01-27T06:01:29;99669.50;;;-7.82;100.00
53011;BME280;42803;55.762;38.084;2024-01-27T06:03:58;99664.69;;;-7.81;100.00
53011;BME280;42803;55.762;38.084;2024-01-27T06:06:27;99661.44;;;-7.80;100.00
53011;BME280;42803;55.762;38.084;2024-01-27T06:08:57;99672.03;;;-7.77;100.00
53011;BME280;42803;55.762;38.084;2024-01-27T06:11:26;99674.13;;;-7.74;100.00
53011;BME280;42803;55.762;38.084;2024-01-27T06:13:57;99668.34;;;-7.73;100.00
53011;BME280;42803;55.762;38.084;2024-01-27T06:16:26;99669.28;;;-7.73;100.00
53011;BME280;42803;55.762;38.084;2024-01-27T06:18:56;99662.81;;;-7.71;100.00
53011;BME280;42803;55.762;38.084;2024-01-27T06:21:25;99668.09;;;-7.75;100.00
53011;BME280;42803;55.762;38.084;2024-01-27T06:23:55;99673.63;;;-7.72;100.00
53011;BME280;42803;55.762;38.084;2024-01-27T06:26:24;99682.88;;;-7.67;100.00
53011;BME280;42803;55.762;38.084;2024-01-27T06:28:53;99674.78;;;-7.64;100.00
53011;BME280;42803;55.762;38.084;2024-01-27T06:31:24;99681.22;;;-7.61;100.00
53011;BME280;42803;55.762;38.084;2024-01-27T06:33:53;99683.53;;;-7.56;100.00
53011;BME280;42803;55.762;38.084;2024-01-27T06:36:22;99682.34;;;-7.53;100.00
53011;BME280;42803;55.762;38.084;2024-01-27T06:38:52;99681.66;;;-7.52;100.00
53011;BME280;42803;55.762;38.084;2024-01-27T06:41:22;99688.56;;;-7.45;100.00
53011;BME280;42803;55.762;38.084;2024-01-27T06:43:51;99693.16;;;-7.37;100.00
53011;BME280;42803;55.762;38.084;2024-01-27T06:46:20;99696.84;;;-7.35;100.00
53011;BME280;42803;55.762;38.084;2024-01-27T06:48:51;99695.19;;;-7.29;100.00
53011;BME280;42803;55.762;38.084;2024-01-27T06:51:20;99703.25;;;-7.26;100.00
53011;BME280;42803;55.762;38.084;2024-01-27T06:53:50;99705.81;;;-7.20;100.00
53011;BME280;42803;55.762;38.084;2024-01-27T06:56:19;99701.84;;;-7.18;100.00
53011;BME280;42803;55.762;38.084;2024-01-27T06:58:48;99701.38;;;-7.10;100.00
53011;BME280;42803;55.762;38.084;2024-01-27T07:01:17;99701.81;;;-7.01;100.00
53011;BME280;42803;55.762;38.084;2024-01-27T07:03:46;99703.19;;;-6.98;100.00
53011;BME280;42803;55.762;38.084;2024-01-27T07:06:17;99705.22;;;-6.95;100.00
53011;BME280;42803;55.762;38.084;2024-01-27T07:08:46;99709.13;;;-6.86;100.00
53011;BME280;42803;55.762;38.084;2024-01-27T07:11:16;99714.41;;;-6.79;100.00
53011;BME280;42803;55.762;38.084;2024-01-27T07:13:45;99717.84;;;-6.73;100.00
53011;BME280;42803;55.762;38.084;2024-01-27T07:16:14;99724.28;;;-6.69;100.00
53011;BME280;42803;55.762;38.084;2024-01-27T07:18:43;99728.88;;;-6.67;100.00
53011;BME280;42803;55.762;38.084;2024-01-27T07:21:16;99723.56;;;-6.63;100.00
53011;BME280;42803;55.762;38.084;2024-01-27T07:23:46;99729.72;;;-6.49;100.00
53011;BME280;42803;55.762;38.084;2024-01-27T07:26:15;99725.06;;;-6.41;100.00
53011;BME280;42803;55.762;38.084;2024-01-27T07:28:45;99714.84;;;-6.35;100.00
53011;BME280;42803;55.762;38.084;2024-01-27T07:31:14;99719.47;;;-6.32;100.00
53011;BME280;42803;55.762;38.084;2024-01-27T07:33:46;99725.91;;;-6.29;100.00
53011;BME280;42803;55.762;38.084;2024-01-27T07:36:18;99732.38;;;-6.25;100.00
53011;BME280;42803;55.762;38.084;2024-01-27T07:38:47;99732.31;;;-6.20;100.00
53011;BME280;42803;55.762;38.084;2024-01-27T07:41:16;99732.44;;;-6.07;100.00
53011;BME280;42803;55.762;38.084;2024-01-27T07:43:46;99726.19;;;-6.03;100.00
53011;BME280;42803;55.762;38.084;2024-01-27T07:46:18;99728.72;;;-6.03;100.00
53011;BME280;42803;55.762;38.084;2024-01-27T07:48:50;99734.50;;;-6.04;100.00
53011;BME280;42803;55.762;38.084;2024-01-27T07:51:21;99744.69;;;-6.04;100.00
53011;BME280;42803;55.762;38.084;2024-01-27T07:53:51;99749.75;;;-6.04;100.00
53011;BME280;42803;55.762;38.084;2024-01-27T07:56:20;99740.50;;;-5.98;100.00
53011;BME280;42803;55.762;38.084;2024-01-27T07:58:50;99745.50;;;-5.93;100.00
53011;BME280;42803;55.762;38.084;2024-01-27T08:01:19;99745.72;;;-5.91;100.00
53011;BME280;42803;55.762;38.084;2024-01-27T08:03:49;99753.72;;;-5.82;100.00
53011;BME280;42803;55.762;38.084;2024-01-27T08:06:26;99752.81;;;-5.83;100.00
53011;BME280;42803;55.762;38.084;2024-01-27T08:08:56;99753.72;;;-5.82;100.00
53011;BME280;42803;55.762;38.084;2024-01-27T08:11:25;99762.53;;;-5.86;100.00
53011;BME280;42803;55.762;38.084;2024-01-27T08:13:57;99760.19;;;-5.84;100.00
53011;BME280;42803;55.762;38.084;2024-01-27T08:16:28;99766.66;;;-5.81;100.00
53011;BME280;42803;55.762;38.084;2024-01-27T08:18:57;99771.72;;;-5.75;100.00
53011;BME280;42803;55.762;38.084;2024-01-27T08:21:28;99777.72;;;-5.80;100.00
53011;BME280;42803;55.762;38.084;2024-01-27T08:23:57;99775.88;;;-5.76;100.00
53011;BME280;42803;55.762;38.084;2024-01-27T08:26:27;99777.19;;;-5.67;100.00
53011;BME280;42803;55.762;38.084;2024-01-27T08:28:56;99782.06;;;-5.68;100.00
53011;BME280;42803;55.762;38.084;2024-01-27T08:31:29;99770.72;;;-5.65;100.00
53011;BME280;42803;55.762;38.084;2024-01-27T08:33:59;99770.19;;;-5.62;100.00
53011;BME280;42803;55.762;38.084;2024-01-27T08:36:30;99773.13;;;-5.53;100.00
53011;BME280;42803;55.762;38.084;2024-01-27T08:39:00;99781.44;;;-5.49;100.00
53011;BME280;42803;55.762;38.084;2024-01-27T08:41:33;99778.38;;;-5.46;100.00
53011;BME280;42803;55.762;38.084;2024-01-27T08:44:03;99780.44;;;-5.44;100.00
53011;BME280;42803;55.762;38.084;2024-01-27T08:46:38;99775.63;;;-5.48;100.00
53011;BME280;42803;55.762;38.084;2024-01-27T08:49:10;99781.34;;;-5.37;100.00
53011;BME280;42803;55.762;38.084;2024-01-27T08:51:44;99782.94;;;-5.38;100.00
53011;BME280;42803;55.762;38.084;2024-01-27T08:54:20;99783.44;;;-5.41;100.00
53011;BME280;42803;55.762;38.084;2024-01-27T08:56:52;99786.47;;;-5.43;100.00
53011;BME280;42803;55.762;38.084;2024-01-27T08:59:24;99793.66;;;-5.46;100.00
53011;BME280;42803;55.762;38.084;2024-01-27T09:01:54;99789.47;;;-5.46;100.00
53011;BME280;42803;55.762;38.084;2024-01-27T09:04:30;99795.25;;;-5.41;100.00
53011;BME280;42803;55.762;38.084;2024-01-27T09:07:30;99791.28;;;-5.39;100.00
53011;BME280;42803;55.762;38.084;2024-01-27T09:10:00;99796.81;;;-5.36;100.00
53011;BME280;42803;55.762;38.084;2024-01-27T09:12:30;99788.47;;;-5.35;100.00
53011;BME280;42803;55.762;38.084;2024-01-27T09:15:01;99790.06;;;-5.30;100.00
53011;BME280;42803;55.762;38.084;2024-01-27T09:17:31;99796.00;;;-5.24;100.00
53011;BME280;42803;55.762;38.084;2024-01-27T09:20:05;99796.00;;;-5.24;100.00
53011;BME280;42803;55.762;38.084;2024-01-27T09:22:37;99802.22;;;-5.22;100.00
53011;BME280;42803;55.762;38.084;2024-01-27T09:26:22;99798.09;;;-5.27;100.00
53011;BME280;42803;55.762;38.084;2024-01-27T09:28:52;99800.88;;;-5.25;100.00
53011;BME280;42803;55.762;38.084;2024-01-27T09:31:23;99803.19;;;-5.27;100.00
53011;BME280;42803;55.762;38.084;2024-01-27T09:33:55;99807.59;;;-5.26;100.00
53011;BME280;42803;55.762;38.084;2024-01-27T09:36:29;99802.00;;;-5.23;100.00
53011;BME280;42803;55.762;38.084;2024-01-27T09:39:03;99802.22;;;-5.22;100.00
53011;BME280;42803;55.762;38.084;2024-01-27T09:41:32;99800.34;;;-5.17;100.00
53011;BME280;42803;55.762;38.084;2024-01-27T09:44:03;99809.34;;;-5.19;100.00
53011;BME280;42803;55.762;38.084;2024-01-27T09:46:32;99804.78;;;-5.22;100.00
53011;BME280;42803;55.762;38.084;2024-01-27T09:49:02;99812.13;;;-5.18;100.00
53011;BME280;42803;55.762;38.084;2024-01-27T09:51:33;99805.91;;;-5.20;100.00
53011;BME280;42803;55.762;38.084;2024-01-27T09:54:05;99808.72;;;-5.24;100.00
53011;BME280;42803;55.762;38.084;2024-01-27T09:56:34;99808.28;;;-5.27;100.00
53011;BME280;42803;55.762;38.084;2024-01-27T09:59:05;99805.50;;;-5.23;100.00
53011;BME280;42803;55.762;38.084;2024-01-27T10:01:35;99818.88;;;-5.24;100.00
53011;BME280;42803;55.762;38.084;2024-01-27T10:04:07;99814.97;;;-5.22;100.00
53011;BME280;42803;55.762;38.084;2024-01-27T10:06:36;99811.50;;;-5.22;100.00
53011;BME280;42803;55.762;38.084;2024-01-27T10:09:09;99813.81;;;-5.24;100.00
53011;BME280;42803;55.762;38.084;2024-01-27T10:11:39;99818.44;;;-5.27;100.00
53011;BME280;42803;55.762;38.084;2024-01-27T10:14:11;99816.63;;;-5.28;100.00
53011;BME280;42803;55.762;38.084;2024-01-27T10:16:41;99819.44;;;-5.32;100.00
53011;BME280;42803;55.762;38.084;2024-01-27T10:19:15;99831.25;;;-5.38;100.00
53011;BME280;42803;55.762;38.084;2024-01-27T10:21:46;99824.59;;;-5.43;100.00
53011;BME280;42803;55.762;38.084;2024-01-27T10:24:17;99824.13;;;-5.41;100.00
53011;BME280;42803;55.762;38.084;2024-01-27T10:26:47;99824.13;;;-5.41;100.00
53011;BME280;42803;55.762;38.084;2024-01-27T10:29:17;99826.88;;;-5.39;100.00
53011;BME280;42803;55.762;38.084;2024-01-27T10:31:47;99846.53;;;-5.38;100.00
53011;BME280;42803;55.762;38.084;2024-01-27T10:34:19;99843.66;;;-5.52;100.00
53011;BME280;42803;55.762;38.084;2024-01-27T10:36:49;99849.19;;;-5.49;100.00
53011;BME280;42803;55.762;38.084;2024-01-27T10:39:22;99853.56;;;-5.48;100.00
53011;BME280;42803;55.762;38.084;2024-01-27T10:41:52;99861.00;;;-5.55;100.00
53011;BME280;42803;55.762;38.084;2024-01-27T10:44:22;99862.13;;;-5.53;100.00
53011;BME280;42803;55.762;38.084;2024-01-27T10:46:52;99865.81;;;-5.51;100.00
53011;BME280;42803;55.762;38.084;2024-01-27T10:49:24;99872.06;;;-5.49;100.00
53011;BME280;42803;55.762;38.084;2024-01-27T10:51:55;99876.66;;;-5.47;100.00
53011;BME280;42803;55.762;38.084;2024-01-27T10:54:28;99869.94;;;-5.46;100.00
53011;BME280;42803;55.762;38.084;2024-01-27T10:56:58;99877.84;;;-5.50;100.00
53011;BME280;42803;55.762;38.084;2024-01-27T10:59:27;99875.28;;;-5.50;100.00
53011;BME280;42803;55.762;38.084;2024-01-27T11:01:57;99888.00;;;-5.50;100.00
53011;BME280;42803;55.762;38.084;2024-01-27T11:04:28;99884.59;;;-5.56;100.00
53011;BME280;42803;55.762;38.084;2024-01-27T11:07:01;99882.97;;;-5.56;100.00
53011;BME280;42803;55.762;38.084;2024-01-27T11:09:34;99891.06;;;-5.53;100.00
53011;BME280;42803;55.762;38.084;2024-01-27T11:12:05;99894.31;;;-5.59;100.00
53011;BME280;42803;55.762;38.084;2024-01-27T11:14:35;99894.59;;;-5.64;100.00
53011;BME280;42803;55.762;38.084;2024-01-27T11:17:09;99891.78;;;-5.59;100.00
53011;BME280;42803;55.762;38.084;2024-01-27T11:19:40;99897.72;;;-5.53;100.00
53011;BME280;42803;55.762;38.084;2024-01-27T11:22:23;99902.09;;;-5.47;100.00
53011;BME280;42803;55.762;38.084;2024-01-27T11:25:07;99907.91;;;-5.53;100.00
53011;BME280;42803;55.762;38.084;2024-01-27T11:27:36;99914.84;;;-5.52;100.00
53011;BME280;42803;55.762;38.084;2024-01-27T11:30:24;99910.44;;;-5.53;100.00
53011;BME280;42803;55.762;38.084;2024-01-27T11:32:54;99909.97;;;-5.51;100.00
53011;BME280;42803;55.762;38.084;2024-01-27T11:35:24;99905.34;;;-5.48;100.00
53011;BME280;42803;55.762;38.084;2024-01-27T11:37:54;99910.22;;;-5.49;100.00
53011;BME280;42803;55.762;38.084;2024-01-27T11:40:26;99911.56;;;-5.46;100.00
53011;BME280;42803;55.762;38.084;2024-01-27T11:42:57;99924.25;;;-5.40;100.00
53011;BME280;42803;55.762;38.084;2024-01-27T11:45:30;99922.41;;;-5.41;100.00
53011;BME280;42803;55.762;38.084;2024-01-27T11:48:01;99920.56;;;-5.42;100.00
53011;BME280;42803;55.762;38.084;2024-01-27T11:50:31;99925.69;;;-5.48;100.00
53011;BME280;42803;55.762;38.084;2024-01-27T11:53:01;99929.41;;;-5.51;100.00
53011;BME280;42803;55.762;38.084;2024-01-27T11:55:32;99927.13;;;-5.55;100.00
53011;BME280;42803;55.762;38.084;2024-01-27T11:58:01;99930.13;;;-5.58;100.00
53011;BME280;42803;55.762;38.084;2024-01-27T12:00:31;99937.09;;;-5.63;100.00
53011;BME280;42803;55.762;38.084;2024-01-27T12:03:01;99937.09;;;-5.63;100.00
53011;BME280;42803;55.762;38.084;2024-01-27T12:05:30;99938.00;;;-5.62;100.00
53011;BME280;42803;55.762;38.084;2024-01-27T12:08:00;99935.25;;;-5.64;100.00
53011;BME280;42803;55.762;38.084;2024-01-27T12:10:35;99932.25;;;-5.67;100.00
53011;BME280;42803;55.762;38.084;2024-01-27T12:13:12;99946.13;;;-5.65;100.00
53011;BME280;42803;55.762;38.084;2024-01-27T12:15:42;99943.16;;;-5.68;100.00
53011;BME280;42803;55.762;38.084;2024-01-27T12:18:12;99953.56;;;-5.72;100.00
53011;BME280;42803;55.762;38.084;2024-01-27T12:20:43;99945.69;;;-5.73;100.00
53011;BME280;42803;55.762;38.084;2024-01-27T12:23:13;99951.94;;;-5.71;100.00
53011;BME280;42803;55.762;38.084;2024-01-27T12:25:52;99966.28;;;-5.72;100.00
53011;BME280;42803;55.762;38.084;2024-01-27T12:28:23;99962.56;;;-5.74;100.00
53011;BME280;42803;55.762;38.084;2024-01-27T12:30:53;99977.16;;;-5.78;100.00
53011;BME280;42803;55.762;38.084;2024-01-27T12:33:23;99978.13;;;-5.83;100.00
53011;BME280;42803;55.762;38.084;2024-01-27T12:35:53;99984.38;;;-5.87;100.00
53011;BME280;42803;55.762;38.084;2024-01-27T12:38:23;99988.03;;;-5.85;100.00
53011;BME280;42803;55.762;38.084;2024-01-27T12:40:54;99988.97;;;-5.84;100.00
53011;BME280;42803;55.762;38.084;2024-01-27T12:43:23;99990.59;;;-5.85;100.00
53011;BME280;42803;55.762;38.084;2024-01-27T12:45:53;99997.50;;;-5.84;100.00
53011;BME280;42803;55.762;38.084;2024-01-27T12:48:22;100002.59;;;-5.84;100.00
53011;BME280;42803;55.762;38.084;2024-01-27T12:50:55;100004.91;;;-5.85;100.00
53011;BME280;42803;55.762;38.084;2024-01-27T12:53:24;100012.53;;;-5.85;100.00
53011;BME280;42803;55.762;38.084;2024-01-27T12:55:55;100012.56;;;-5.91;100.00
53011;BME280;42803;55.762;38.084;2024-01-27T12:58:25;100016.06;;;-5.96;100.00